Time;durP1;ratioP1;P1;durP2;ratioP2;P2;SDS_P1;SDS_P2;PMS_P1;PMS_P2;Temp;Humidity;BMP_temperature;BMP_pressure;BME280_temperature;BME280_humidity;BME280_pressure;Samples;Min_cycle;Max_cycle;Signal;HPM_P1;HPM_P2
2023/11/12 00:02:24;;;;;;;;;;;8.90;99.90;;;;;;5037046;28;20022;-71
2023/11/12 00:04:49;;;;;;;13.55;6.30;;;9.00;99.90;;;;;;5024346;28;19936;-71
2023/11/12 00:07:15;;;;;;;16.13;6.40;;;9.10;99.90;;;;;;5019543;28;20109;-71
2023/11/12 00:09:44;;;;;;;18.00;6.80;;;9.10;99.90;;;;;;5018425;28;20021;-72
2023/11/12 00:12:10;;;;;;;16.60;6.53;;;9.10;99.90;;;;;;5021450;28;20018;-71
2023/11/12 00:14:35;;;;;;;11.25;6.30;;;9.20;99.90;;;;;;5028392;28;20025;-71
2023/11/12 00:17:03;;;;;;;12.18;6.53;;;9.10;99.90;;;;;;5027582;28;20357;-72
2023/11/12 00:19:32;;;;;;;;;;;9.10;99.90;;;;;;5028986;28;20029;-72
2023/11/12 00:21:58;;;;;;;10.52;5.90;;;9.10;99.90;;;;;;5029450;28;19945;-72
2023/11/12 00:24:24;;;;;;;12.88;6.53;;;9.10;99.90;;;;;;5024787;28;20171;-72
2023/11/12 00:26:52;;;;;;;10.73;6.45;;;9.10;99.90;;;;;;5027938;28;20445;-71
2023/11/12 00:29:17;;;;;;;;;;;9.10;99.90;;;;;;5045921;28;20025;-72
2023/11/12 00:31:43;;;;;;;15.80;5.70;;;9.20;99.90;;;;;;5033411;28;19908;-72
2023/11/12 00:34:11;;;;;;;11.52;5.97;;;9.10;99.90;;;;;;5025480;28;20033;-71
2023/11/12 00:36:42;;;;;;;12.18;6.20;;;9.20;99.90;;;;;;5027806;28;20032;-72
2023/11/12 00:39:09;;;;;;;13.38;6.43;;;9.20;99.90;;;;;;5025008;28;20033;-71
2023/11/12 00:41:37;;;;;;;12.48;6.57;;;9.20;99.90;;;;;;5018071;28;20022;-72
2023/11/12 00:44:10;;;;;;;9.88;6.40;;;9.20;99.90;;;;;;5029208;28;20021;-72
2023/11/12 00:46:42;;;;;;;11.30;6.63;;;9.20;99.90;;;;;;5022227;28;20025;-72
2023/11/12 00:49:09;;;;;;;11.98;6.57;;;9.30;99.90;;;;;;5027609;28;20041;-72
2023/11/12 00:51:35;;;;;;;15.43;8.32;;;9.30;99.90;;;;;;5028978;28;20033;-72
2023/11/12 00:54:01;;;;;;;15.23;6.82;;;9.30;99.90;;;;;;5029286;28;20029;-71
2023/11/12 00:56:30;;;;;;;12.23;6.72;;;9.40;99.90;;;;;;5021157;28;20771;-72
2023/11/12 00:58:55;;;;;;;13.88;7.25;;;9.40;99.90;;;;;;5027295;28;20038;-71
2023/11/12 01:01:21;;;;;;;18.15;7.65;;;9.40;99.90;;;;;;5024617;28;20534;-71
2023/11/12 01:03:48;;;;;;;12.50;6.70;;;9.40;99.90;;;;;;5024801;28;20029;-72
2023/11/12 01:06:14;;;;;;;17.20;7.70;;;9.50;99.90;;;;;;5028658;28;20523;-72
2023/11/12 01:08:40;;;;;;;12.57;6.95;;;9.50;99.90;;;;;;5022480;28;20085;-71
2023/11/12 01:11:05;;;;;;;12.18;6.97;;;9.40;99.90;;;;;;5028378;28;20387;-71
2023/11/12 01:13:36;;;;;;;15.90;7.47;;;9.40;99.90;;;;;;5027552;28;20487;-73
2023/11/12 01:16:04;;;;;;;15.77;8.45;;;9.30;99.90;;;;;;5026231;28;20057;-71
2023/11/12 01:18:31;;;;;;;17.15;7.18;;;9.30;99.90;;;;;;5045657;28;20040;-72
2023/11/12 01:20:57;;;;;;;15.80;8.65;;;9.20;99.90;;;;;;5024033;28;20058;-71
2023/11/12 01:23:22;;;;;;;14.82;8.93;;;9.20;99.90;;;;;;5027869;28;20431;-72
2023/11/12 01:25:50;;;;;;;17.58;9.27;;;9.30;99.90;;;;;;5023077;28;20037;-72
2023/11/12 01:28:16;;;;;;;17.40;8.38;;;9.40;99.90;;;;;;5027213;28;20026;-71
2023/11/12 01:30:41;;;;;;;13.48;9.25;;;9.30;99.90;;;;;;5030185;28;20605;-71
2023/11/12 01:33:10;;;;;;;18.10;9.02;;;9.30;99.90;;;;;;5029334;28;20033;-73
2023/11/12 01:35:35;;;;;;;13.98;8.43;;;9.20;99.90;;;;;;5024403;28;20104;-72
2023/11/12 01:38:01;;;;;;;18.20;9.73;;;9.20;99.90;;;;;;5045041;28;20563;-71
2023/11/12 01:40:28;;;;;;;16.23;9.45;;;9.30;99.90;;;;;;5027406;28;20038;-71
2023/11/12 01:42:53;;;;;;;14.48;9.80;;;9.40;99.90;;;;;;5037894;28;20060;-72
2023/11/12 01:45:21;;;;;;;16.30;9.68;;;9.30;99.90;;;;;;5026772;28;20053;-72
2023/11/12 01:47:47;;;;;;;18.27;10.45;;;9.20;99.90;;;;;;5029416;28;20136;-71
2023/11/12 01:50:18;;;;;;;16.38;9.15;;;9.30;99.90;;;;;;5022642;28;20091;-72
2023/11/12 01:52:48;;;;;;;19.17;10.63;;;9.30;99.90;;;;;;5025824;28;20172;-72
2023/11/12 01:55:13;;;;;;;20.52;11.30;;;9.20;99.90;;;;;;5027572;28;20060;-72
2023/11/12 01:57:40;;;;;;;18.40;10.80;;;9.20;99.90;;;;;;5022599;28;20446;-72
2023/11/12 02:00:10;;;;;;;17.88;11.27;;;9.20;99.90;;;;;;5020318;28;20125;-72
2023/11/12 02:02:39;;;;;;;19.27;11.82;;;9.20;99.90;;;;;;5038109;28;20026;-72
2023/11/12 02:05:06;;;;;;;20.65;11.73;;;9.30;99.90;;;;;;5027683;28;20053;-72
2023/11/12 02:07:32;;;;;;;20.20;11.25;;;9.20;99.90;;;;;;5027606;28;20037;-72
2023/11/12 02:10:08;;;;;;;20.05;11.85;;;9.20;99.90;;;;;;5029364;28;20436;-71
2023/11/12 02:12:34;;;;;;;22.30;11.65;;;9.30;99.90;;;;;;5025108;28;20047;-71
2023/11/12 02:15:00;;;;;;;20.35;12.68;;;9.20;99.90;;;;;;5024579;28;20112;-72
2023/11/12 02:17:27;;;;;;;22.50;12.80;;;9.20;99.90;;;;;;5024419;28;20021;-72
2023/11/12 02:20:03;;;;;;;21.65;12.88;;;9.20;99.90;;;;;;5024580;28;20017;-71
2023/11/12 02:22:29;;;;;;;19.00;12.40;;;9.10;99.90;;;;;;5025625;28;20026;-72
2023/11/12 02:24:54;;;;;;;20.75;12.75;;;9.20;99.90;;;;;;5028782;28;20436;-74
2023/11/12 02:27:20;;;;;;;20.45;12.65;;;9.20;99.90;;;;;;5025693;28;20022;-72
2023/11/12 02:29:49;;;;;;;20.15;12.48;;;9.30;99.90;;;;;;5025156;28;20032;-72
2023/11/12 02:32:16;;;;;;;20.35;12.98;;;9.30;99.90;;;;;;5023673;28;20087;-71
2023/11/12 02:34:45;;;;;;;26.85;13.25;;;9.20;99.90;;;;;;5019412;28;20033;-71
2023/11/12 02:37:13;;;;;;;26.60;12.75;;;9.20;99.90;;;;;;5020343;28;20048;-71
2023/11/12 02:39:42;;;;;;;21.00;12.80;;;9.20;99.90;;;;;;5037829;28;20586;-71
2023/11/12 02:42:11;;;;;;;25.75;13.88;;;9.20;99.90;;;;;;5025380;28;20049;-72
2023/11/12 02:44:39;;;;;;;22.70;13.13;;;9.20;99.90;;;;;;5020493;28;20526;-71
2023/11/12 02:47:08;;;;;;;21.33;13.75;;;9.20;99.90;;;;;;5023678;28;20387;-72
2023/11/12 02:50:06;;;;;;;22.65;12.85;;;9.10;99.90;;;;;;5024304;28;20517;-71
2023/11/12 02:52:35;;;;;;;30.33;14.55;;;9.10;99.90;;;;;;5019057;28;20033;-72
2023/11/12 02:55:01;;;;;;;21.92;13.68;;;9.10;99.90;;;;;;5023305;28;20069;-63
2023/11/12 02:57:26;;;;;;;27.55;15.75;;;9.10;99.90;;;;;;5032277;28;20067;-64
2023/11/12 02:59:53;;;;;;;24.38;14.88;;;9.20;99.90;;;;;;5022151;28;20034;-63
2023/11/12 03:02:19;;;;;;;26.48;15.13;;;9.20;99.90;;;;;;5022684;28;20040;-64
2023/11/12 03:04:46;;;;;;;25.80;15.02;;;9.20;99.90;;;;;;5022239;28;20486;-64
2023/11/12 03:07:11;;;;;;;37.55;14.70;;;9.10;99.90;;;;;;5027062;28;20031;-64
2023/11/12 03:09:39;;;;;;;21.77;14.07;;;9.20;99.90;;;;;;5026892;28;20056;-63
2023/11/12 03:12:05;;;;;;;26.38;15.75;;;9.20;99.90;;;;;;5022644;28;20022;-64
2023/11/12 03:14:31;;;;;;;27.30;16.13;;;9.20;99.90;;;;;;5024499;28;20025;-64
2023/11/12 03:16:57;;;;;;;25.35;14.45;;;9.20;99.90;;;;;;5018549;28;20037;-64
2023/11/12 03:19:23;;;;;;;31.63;15.35;;;9.10;99.90;;;;;;5025412;28;20044;-64
2023/11/12 03:21:52;;;;;;;24.98;14.05;;;9.10;99.90;;;;;;5026373;28;20024;-64
2023/11/12 03:24:26;;;;;;;26.88;15.40;;;9.10;99.90;;;;;;5019910;28;20022;-64
2023/11/12 03:26:55;;;;;;;24.92;14.18;;;9.20;99.90;;;;;;5023393;28;20068;-63
2023/11/12 03:29:23;;;;;;;22.20;13.52;;;9.20;99.90;;;;;;5019450;28;20022;-64
2023/11/12 03:31:49;;;;;;;20.98;12.82;;;9.10;99.90;;;;;;5024123;28;20104;-63
2023/11/12 03:34:15;;;;;;;23.10;12.90;;;9.10;99.90;;;;;;5019417;28;20484;-63
2023/11/12 03:36:41;;;;;;;20.95;13.48;;;9.10;99.90;;;;;;5014303;28;20065;-63
2023/11/12 03:39:09;;;;;;;23.52;13.93;;;9.20;99.90;;;;;;5022068;28;20108;-63
2023/11/12 03:41:35;;;;;;;;;;;9.10;99.90;;;;;;5020498;28;20025;-63
2023/11/12 03:44:01;;;;;;;19.98;12.80;;;9.10;99.90;;;;;;5025759;28;19920;-63
2023/11/12 03:46:29;;;;;;;25.33;13.88;;;9.00;99.90;;;;;;5026489;28;20050;-63
2023/11/12 03:48:56;;;;;;;23.33;13.93;;;9.00;99.90;;;;;;5024767;28;20018;-64
2023/11/12 03:51:22;;;;;;;20.33;13.68;;;9.10;99.90;;;;;;5026016;28;20147;-63
2023/11/12 03:53:51;;;;;;;22.15;14.15;;;9.00;99.90;;;;;;5026230;28;20108;-64
2023/11/12 03:56:17;;;;;;;21.73;13.75;;;9.00;99.90;;;;;;5025323;28;20112;-64
2023/11/12 03:58:45;;;;;;;20.40;13.15;;;9.00;99.90;;;;;;5025781;28;20117;-63
2023/11/12 04:01:10;;;;;;;;;;;9.00;99.90;;;;;;5025878;28;20021;-63
2023/11/12 04:03:36;;;;;;;26.55;13.85;;;9.00;99.90;;;;;;5021613;28;19913;-63
2023/11/12 04:06:02;;;;;;;21.73;13.88;;;8.90;99.90;;;;;;5025109;28;20119;-64
2023/11/12 04:08:27;;;;;;;23.73;13.25;;;8.90;99.90;;;;;;5026390;28;20120;-64
2023/11/12 04:10:53;;;;;;;26.08;14.43;;;8.80;99.90;;;;;;5026909;28;20495;-63
2023/11/12 04:13:18;;;;;;;25.25;14.45;;;8.80;99.90;;;;;;5026544;28;20095;-63
2023/11/12 04:15:44;;;;;;;30.65;14.05;;;8.90;99.90;;;;;;5029164;28;20033;-63
2023/11/12 04:18:10;;;;;;;25.40;14.15;;;9.00;99.90;;;;;;5028382;28;20029;-63
2023/11/12 04:20:36;;;;;;;26.95;15.05;;;9.00;99.90;;;;;;5024328;28;20071;-63
2023/11/12 04:23:04;;;;;;;24.55;14.60;;;8.90;99.90;;;;;;5026664;28;20029;-64
2023/11/12 04:25:30;;;;;;;27.42;15.82;;;8.90;99.90;;;;;;5027419;28;20041;-63
2023/11/12 04:27:55;;;;;;;25.30;14.45;;;8.90;99.90;;;;;;5022394;28;20033;-63
2023/11/12 04:30:21;;;;;;;22.95;13.57;;;9.00;99.90;;;;;;5027436;28;20602;-63
2023/11/12 04:32:46;;;;;;;33.08;15.05;;;8.90;99.90;;;;;;5027879;28;20029;-63
2023/11/12 04:35:12;;;;;;;24.65;14.50;;;8.80;99.90;;;;;;5018199;28;20041;-63
2023/11/12 04:37:43;;;;;;;26.48;15.13;;;8.80;99.90;;;;;;5039978;28;20022;-63
2023/11/12 04:40:09;;;;;;;23.33;13.88;;;8.90;99.90;;;;;;5025163;28;20028;-63
2023/11/12 04:42:35;;;;;;;23.38;13.45;;;8.80;99.90;;;;;;5025787;28;20025;-64
2023/11/12 04:45:02;;;;;;;21.17;13.02;;;8.80;99.90;;;;;;5027033;28;20040;-63
2023/11/12 04:47:28;;;;;;;21.30;12.77;;;8.70;99.90;;;;;;5029286;28;20026;-64
2023/11/12 04:49:56;;;;;;;25.13;14.05;;;8.60;99.90;;;;;;5027896;28;20032;-64
2023/11/12 04:52:21;;;;;;;;;;;8.70;99.90;;;;;;5027199;28;20032;-63
2023/11/12 04:54:50;;;;;;;20.42;11.50;;;8.70;99.90;;;;;;5027374;28;19913;-63
2023/11/12 04:57:16;;;;;;;21.35;14.07;;;8.60;99.90;;;;;;5027367;28;20164;-64
2023/11/12 04:59:42;;;;;;;23.52;13.38;;;8.50;99.90;;;;;;5027086;28;20033;-63
2023/11/12 05:02:08;;;;;;;25.98;14.55;;;8.50;99.90;;;;;;5022853;28;20033;-63
2023/11/12 05:04:34;;;;;;;20.27;12.90;;;8.50;99.90;;;;;;5028125;28;20119;-63
2023/11/12 05:06:59;;;;;;;22.35;13.13;;;8.50;99.90;;;;;;5027495;28;20464;-64
2023/11/12 05:09:25;;;;;;;19.63;12.48;;;8.40;99.90;;;;;;5026584;28;20033;-63
2023/11/12 05:11:54;;;;;;;23.13;14.00;;;8.40;99.90;;;;;;5025390;28;20220;-63
2023/11/12 05:14:22;;;;;;;21.67;13.80;;;8.40;99.90;;;;;;5025749;28;20036;-63
2023/11/12 05:16:47;;;;;;;22.58;13.93;;;8.50;99.90;;;;;;5027264;28;20037;-64
2023/11/12 05:19:16;;;;;;;25.17;14.70;;;8.60;99.90;;;;;;5028057;28;20459;-64
2023/11/12 05:21:45;;;;;;;25.20;14.20;;;8.60;99.90;;;;;;5024576;28;20034;-64
2023/11/12 05:24:16;;;;;;;23.58;13.18;;;8.50;99.90;;;;;;5029314;28;20383;-64
2023/11/12 05:26:42;;;;;;;25.00;15.00;;;8.50;99.90;;;;;;5025859;28;20037;-64
2023/11/12 05:29:10;;;;;;;22.45;13.55;;;8.50;99.90;;;;;;5030302;28;20041;-64
2023/11/12 05:31:38;;;;;;;24.27;14.40;;;8.60;99.90;;;;;;5017898;28;20022;-63
2023/11/12 05:34:03;;;;;;;24.50;14.35;;;8.60;99.90;;;;;;5025781;28;20072;-64
2023/11/12 05:36:29;;;;;;;27.35;14.43;;;8.70;99.90;;;;;;5025831;28;20061;-63
2023/11/12 05:38:58;;;;;;;22.63;14.23;;;8.70;99.90;;;;;;5020532;28;20034;-63
2023/11/12 05:41:24;;;;;;;28.27;15.20;;;8.70;99.90;;;;;;5022799;28;20051;-63
2023/11/12 05:43:50;;;;;;;26.20;15.30;;;8.80;99.90;;;;;;5041737;28;20626;-64
2023/11/12 05:46:16;;;;;;;24.75;14.60;;;8.80;99.90;;;;;;5028299;28;20021;-63
2023/11/12 05:48:41;;;;;;;24.13;14.85;;;8.80;99.90;;;;;;5025338;28;20036;-63
2023/11/12 05:51:08;;;;;;;24.08;14.98;;;8.80;99.90;;;;;;5021308;28;20052;-63
2023/11/12 05:53:35;;;;;;;28.17;15.23;;;8.90;99.90;;;;;;5026496;28;20030;-65
2023/11/12 05:56:00;;;;;;;21.17;14.43;;;8.90;99.90;;;;;;5026416;28;20086;-64
2023/11/12 05:58:26;;;;;;;21.00;13.93;;;8.90;99.90;;;;;;5023020;28;21225;-64
2023/11/12 06:00:55;;;;;;;23.77;13.95;;;8.70;99.90;;;;;;5026697;28;20036;-64
2023/11/12 06:03:26;;;;;;;21.42;12.55;;;8.60;99.90;;;;;;5021745;28;20133;-64
2023/11/12 06:05:51;;;;;;;21.92;14.63;;;8.60;99.90;;;;;;5025236;28;20033;-64
2023/11/12 06:08:17;;;;;;;22.05;13.13;;;8.50;99.90;;;;;;5020072;28;20036;-64
2023/11/12 06:10:43;;;;;;;32.25;14.82;;;8.50;99.90;;;;;;5027182;28;20036;-65
2023/11/12 06:13:09;;;;;;;20.88;13.13;;;8.40;99.90;;;;;;5024522;28;20029;-64
2023/11/12 06:15:37;;;;;;;23.00;14.73;;;8.40;99.90;;;;;;5023551;28;20070;-64
2023/11/12 06:18:03;;;;;;;20.30;12.85;;;8.40;99.90;;;;;;5023010;28;20065;-64
2023/11/12 06:20:29;;;;;;;23.70;13.95;;;8.40;99.90;;;;;;5024852;28;20064;-64
2023/11/12 06:22:59;;;;;;;21.02;13.13;;;8.40;99.90;;;;;;5021582;28;20113;-64
2023/11/12 06:25:25;;;;;;;22.40;13.57;;;8.40;99.90;;;;;;5026065;28;20029;-64
2023/11/12 06:27:56;;;;;;;25.08;13.02;;;8.40;99.90;;;;;;5025837;28;20040;-64
2023/11/12 06:30:24;;;;;;;23.70;12.20;;;8.50;99.90;;;;;;5024746;28;20514;-64
2023/11/12 06:32:50;;;;;;;;;;;8.60;99.90;;;;;;5030902;28;20487;-64
2023/11/12 06:35:16;;;;;;;24.42;12.52;;;8.60;99.90;;;;;;5025594;28;19921;-64
2023/11/12 06:37:41;;;;;;;20.95;12.43;;;8.70;99.90;;;;;;5026257;28;20479;-64
2023/11/12 06:40:08;;;;;;;25.98;14.77;;;8.80;99.90;;;;;;5023262;28;20021;-64
2023/11/12 06:42:33;;;;;;;21.83;13.20;;;8.80;99.90;;;;;;5022951;28;20501;-64
2023/11/12 06:44:59;;;;;;;20.55;12.60;;;8.90;99.90;;;;;;5038670;28;20117;-64
2023/11/12 06:47:24;;;;;;;22.65;13.07;;;8.90;99.90;;;;;;5029446;28;20021;-64
2023/11/12 06:49:50;;;;;;;24.42;12.70;;;9.00;99.90;;;;;;5025329;28;20025;-64
2023/11/12 06:52:17;;;;;;;16.42;11.30;;;9.10;99.90;;;;;;5022281;28;20033;-64
2023/11/12 06:54:43;;;;;;;21.75;12.50;;;9.10;99.90;;;;;;5024862;28;20029;-64
2023/11/12 06:57:13;;;;;;;20.85;13.25;;;9.10;99.90;;;;;;5023930;28;20037;-64
2023/11/12 06:59:40;;;;;;;24.98;11.23;;;9.20;99.90;;;;;;5016741;28;20045;-65
2023/11/12 07:02:06;;;;;;;19.02;11.52;;;9.20;99.90;;;;;;5024534;28;20399;-64
2023/11/12 07:04:32;;;;;;;20.42;12.00;;;9.20;99.90;;;;;;5041883;28;20025;-64
2023/11/12 07:06:58;;;;;;;20.10;12.25;;;9.10;99.90;;;;;;5024993;28;20373;-64
2023/11/12 07:09:25;;;;;;;21.75;12.23;;;9.10;99.90;;;;;;5023706;28;20025;-64
2023/11/12 07:11:53;;;;;;;20.35;11.73;;;9.10;99.90;;;;;;5021382;28;20091;-64
2023/11/12 07:14:19;;;;;;;;;;;9.10;99.90;;;;;;5024617;28;20026;-64
2023/11/12 07:16:48;;;;;;;15.38;10.65;;;9.20;99.90;;;;;;5023115;28;20353;-65
2023/11/12 07:19:13;;;;;;;;;;;9.20;99.90;;;;;;5024743;28;20029;-64
2023/11/12 07:21:39;;;;;;;19.67;11.40;;;9.20;99.90;;;;;;5018660;28;19928;-64
2023/11/12 07:24:05;;;;;;;21.05;11.45;;;9.20;99.90;;;;;;5023306;28;20035;-64
2023/11/12 07:26:33;;;;;;;18.85;11.60;;;9.20;99.90;;;;;;5020526;28;20064;-65
2023/11/12 07:28:59;;;;;;;17.25;11.23;;;9.20;99.90;;;;;;5021595;28;20030;-64
2023/11/12 07:31:25;;;;;;;19.80;12.20;;;9.20;99.90;;;;;;5025956;28;20026;-64
2023/11/12 07:33:51;;;;;;;19.33;11.60;;;9.20;99.90;;;;;;5026287;28;20438;-64
2023/11/12 07:36:17;;;;;;;19.13;11.27;;;9.20;99.90;;;;;;5019756;28;20069;-65
2023/11/12 07:38:42;;;;;;;24.77;11.90;;;9.30;99.90;;;;;;5017641;28;20050;-64
2023/11/12 07:41:11;;;;;;;18.23;11.35;;;9.30;99.90;;;;;;5020420;28;20036;-64
2023/11/12 07:43:38;;;;;;;19.42;11.38;;;9.30;99.90;;;;;;5027325;28;20034;-64
2023/11/12 07:46:04;;;;;;;22.00;12.05;;;9.30;99.90;;;;;;5023278;28;20467;-64
2023/11/12 07:48:30;;;;;;;20.60;10.77;;;9.40;99.90;;;;;;5026406;28;20034;-64
2023/11/12 07:51:00;;;;;;;20.77;11.20;;;9.30;99.90;;;;;;5019998;28;20026;-64
2023/11/12 07:53:28;;;;;;;21.17;11.73;;;9.40;99.90;;;;;;5025531;28;20402;-64
2023/11/12 07:55:54;;;;;;;17.52;10.70;;;9.40;99.90;;;;;;5019597;28;20124;-64
2023/11/12 07:58:20;;;;;;;22.02;10.93;;;9.40;99.90;;;;;;5026851;28;20108;-64
2023/11/12 08:00:46;;;;;;;24.38;13.02;;;9.50;99.90;;;;;;5018038;28;20080;-64
2023/11/12 08:03:14;;;;;;;21.40;11.65;;;9.50;99.90;;;;;;5023770;28;20029;-64
2023/11/12 08:05:40;;;;;;;;;;;9.50;99.90;;;;;;5017371;28;20066;-64
2023/11/12 08:08:06;;;;;;;20.17;11.57;;;9.30;99.90;;;;;;5023857;28;20279;-64
2023/11/12 08:10:37;;;;;;;25.70;12.43;;;9.20;99.90;;;;;;5024157;28;20033;-64
2023/11/12 08:13:05;;;;;;;27.35;15.80;;;9.30;99.90;;;;;;5020691;28;20034;-64
2023/11/12 08:15:31;;;;;;;28.75;12.55;;;9.40;99.90;;;;;;5019343;28;20037;-63
2023/11/12 08:17:56;;;;;;;21.33;11.70;;;9.40;99.90;;;;;;5016541;28;20025;-64
2023/11/12 08:20:22;;;;;;;20.95;11.50;;;9.50;99.90;;;;;;5020166;28;20040;-64
2023/11/12 08:22:50;;;;;;;20.17;12.05;;;9.50;99.90;;;;;;5021101;28;20034;-64
2023/11/12 08:25:16;;;;;;;19.42;10.65;;;9.50;99.90;;;;;;5024773;28;20414;-64
2023/11/12 08:27:42;;;;;;;17.02;10.95;;;9.40;99.90;;;;;;5018681;28;20080;-64
2023/11/12 08:30:08;;;;;;;21.17;11.70;;;9.40;99.90;;;;;;5016472;28;20180;-64
2023/11/12 08:32:35;;;;;;;23.13;10.52;;;9.50;99.90;;;;;;5020984;28;20033;-64
2023/11/12 08:35:04;;;;;;;18.77;10.93;;;9.50;99.90;;;;;;5018578;28;20036;-64
2023/11/12 08:37:29;;;;;;;18.88;9.80;;;9.50;99.90;;;;;;5024889;28;20297;-64
2023/11/12 08:39:55;;;;;;;20.05;10.55;;;9.40;99.90;;;;;;5029447;28;20038;-64
2023/11/12 08:42:20;;;;;;;20.90;11.30;;;9.40;99.90;;;;;;5037807;28;20498;-64
2023/11/12 08:44:46;;;;;;;17.88;10.10;;;9.50;99.90;;;;;;5022887;28;20033;-64
2023/11/12 08:47:11;;;;;;;18.00;9.70;;;9.40;99.90;;;;;;5024593;28;20022;-64
2023/11/12 08:49:37;;;;;;;16.80;9.57;;;9.40;99.90;;;;;;5021573;28;20084;-64
2023/11/12 08:52:03;;;;;;;17.58;9.07;;;9.60;99.90;;;;;;5020806;28;20511;-64
2023/11/12 08:54:31;;;;;;;15.23;9.73;;;9.60;99.90;;;;;;5023286;28;20095;-64
2023/11/12 08:56:59;;;;;;;19.40;10.07;;;9.60;99.90;;;;;;5025905;28;20033;-65
2023/11/12 08:59:25;;;;;;;18.63;9.38;;;9.60;99.90;;;;;;5024997;28;20571;-65
2023/11/12 09:01:51;;;;;;;15.63;9.30;;;9.60;99.90;;;;;;5024770;28;20040;-65
2023/11/12 09:04:16;;;;;;;13.07;8.52;;;9.60;99.90;;;;;;5026783;28;20037;-65
2023/11/12 09:06:44;;;;;;;19.90;10.02;;;9.70;99.90;;;;;;5024165;28;20056;-65
2023/11/12 09:09:12;;;;;;;17.33;9.25;;;9.60;99.90;;;;;;5029259;28;20040;-65
2023/11/12 09:11:37;;;;;;;18.13;8.93;;;9.60;99.90;;;;;;5029409;28;20041;-64
2023/11/12 09:14:05;;;;;;;15.30;8.20;;;9.60;99.90;;;;;;5043331;28;20033;-65
2023/11/12 09:16:33;;;;;;;22.77;9.48;;;9.60;99.90;;;;;;5022429;28;20961;-64
2023/11/12 09:19:05;;;;;;;18.98;9.10;;;9.60;99.90;;;;;;5019698;28;20033;-65
2023/11/12 09:21:33;;;;;;;15.15;8.95;;;9.60;99.90;;;;;;5022212;28;20026;-65
2023/11/12 09:23:59;;;;;;;18.33;10.15;;;9.50;99.90;;;;;;5021106;28;20026;-65
2023/11/12 09:26:24;;;;;;;16.35;8.77;;;9.60;99.90;;;;;;5022760;28;20079;-64
2023/11/12 09:28:50;;;;;;;15.20;8.60;;;9.60;99.90;;;;;;5020616;28;20097;-65
2023/11/12 09:31:16;;;;;;;14.70;9.15;;;9.60;99.90;;;;;;5022904;28;20082;-64
2023/11/12 09:33:42;;;;;;;17.55;8.20;;;9.60;99.90;;;;;;5025577;28;20025;-65
2023/11/12 09:36:13;;;;;;;15.07;8.88;;;9.60;99.90;;;;;;5023279;28;20037;-64
2023/11/12 09:38:41;;;;;;;14.35;7.63;;;9.60;99.90;;;;;;5021806;28;20029;-65
2023/11/12 09:41:09;;;;;;;;;;;9.60;99.90;;;;;;5025990;28;20083;-64
2023/11/12 09:43:35;;;;;;;15.30;7.68;;;9.60;99.90;;;;;;5026759;28;19913;-64
2023/11/12 09:46:06;;;;;;;13.23;7.20;;;9.60;99.90;;;;;;5023514;28;20044;-64
2023/11/12 09:48:35;;;;;;;17.52;7.45;;;9.70;99.90;;;;;;5020373;28;20037;-64
2023/11/12 09:51:11;;;;;;;10.23;6.70;;;9.70;99.90;;;;;;5026914;28;20466;-65
2023/11/12 09:53:39;;;;;;;10.77;7.20;;;9.70;99.90;;;;;;5019486;28;20033;-65
2023/11/12 09:56:09;;;;;;;14.25;7.75;;;9.70;99.90;;;;;;5020645;28;20021;-65
2023/11/12 09:58:42;;;;;;;17.38;7.68;;;9.70;99.90;;;;;;5020112;28;20025;-65
2023/11/12 10:01:11;;;;;;;12.32;7.85;;;9.70;99.90;;;;;;5023825;28;20519;-65
2023/11/12 10:03:38;;;;;;;12.25;7.50;;;9.70;99.90;;;;;;5021562;28;20024;-66
2023/11/12 10:06:05;;;;;;;18.40;8.05;;;9.70;99.90;;;;;;5019945;28;20087;-66
2023/11/12 10:08:37;;;;;;;13.25;7.35;;;9.70;99.90;;;;;;5025773;28;20056;-66
2023/11/12 10:11:20;;;;;;;14.05;8.05;;;9.70;99.90;;;;;;5027188;28;20038;-65
2023/11/12 10:13:46;;;;;;;12.75;7.32;;;9.70;99.90;;;;;;5022004;28;20025;-65
2023/11/12 10:16:30;;;;;;;12.65;7.35;;;9.70;99.90;;;;;;5018680;28;20021;-77
2023/11/12 10:19:13;;;;;;;14.80;7.18;;;9.70;99.90;;;;;;5035866;28;20355;-66
2023/11/12 10:22:11;;;;;;;14.18;7.05;;;9.70;99.90;;;;;;5021778;28;20460;-66
2023/11/12 10:24:46;;;;;;;;;;;9.70;99.90;;;;;;5017991;28;20034;-66
2023/11/12 10:27:14;;;;;;;17.27;7.55;;;9.70;99.90;;;;;;5019656;28;19909;-66
2023/11/12 10:29:41;;;;;;;16.20;7.88;;;9.70;99.90;;;;;;5021481;28;20140;-66
2023/11/12 10:32:22;;;;;;;14.68;8.05;;;9.80;99.90;;;;;;5037942;28;20041;-66
2023/11/12 10:34:48;;;;;;;11.77;6.90;;;9.90;99.90;;;;;;5023677;28;20090;-66
2023/11/12 10:37:14;;;;;;;9.65;7.00;;;9.90;99.90;;;;;;5021322;28;20064;-65
2023/11/12 10:39:41;;;;;;;14.88;7.70;;;9.90;99.90;;;;;;5022927;28;20029;-66
2023/11/12 10:42:13;;;;;;;10.52;6.95;;;9.80;99.90;;;;;;5018595;28;20437;-66
2023/11/12 10:44:39;;;;;;;16.70;7.07;;;10.00;99.90;;;;;;5020552;28;20038;-66
2023/11/12 10:47:09;;;;;;;9.63;7.05;;;10.00;99.90;;;;;;5021547;28;20050;-66
2023/11/12 10:49:39;;;;;;;9.60;6.88;;;10.00;99.90;;;;;;5024788;28;20095;-66
2023/11/12 10:52:06;;;;;;;10.35;6.60;;;10.00;99.90;;;;;;5025316;28;20029;-66
2023/11/12 10:54:35;;;;;;;15.23;6.38;;;10.10;99.90;;;;;;5024501;28;20029;-66
2023/11/12 10:57:02;;;;;;;12.20;7.45;;;9.90;99.90;;;;;;5037587;23;20053;-73
2023/11/12 10:59:29;;;;;;;14.93;7.50;;;10.00;99.90;;;;;;5042566;28;20031;-71
2023/11/12 11:01:59;;;;;;;16.90;6.72;;;10.00;99.90;;;;;;5048074;28;20028;-70
2023/11/12 11:04:28;;;;;;;11.32;6.75;;;10.10;99.90;;;;;;5045312;28;20359;-71
2023/11/12 11:06:54;;;;;;;16.75;6.72;;;10.10;99.90;;;;;;5053103;28;20033;-72
2023/11/12 11:09:22;;;;;;;12.40;6.70;;;10.00;99.90;;;;;;5054404;28;20123;-71
2023/11/12 11:11:49;;;;;;;11.80;6.45;;;10.10;99.90;;;;;;5053899;28;20494;-71
2023/11/12 11:14:27;;;;;;;15.48;6.70;;;10.10;99.90;;;;;;5056126;28;20036;-72
2023/11/12 11:16:53;;;;;;;;;;;10.10;99.90;;;;;;5044529;28;20040;-72
2023/11/12 11:19:37;;;;;;;12.13;6.53;;;10.20;99.90;;;;;;5065577;28;20328;-71
2023/11/12 11:22:22;;;;;;;15.13;6.82;;;10.20;99.90;;;;;;5047724;28;20025;-71
2023/11/12 11:24:48;;;;;;;16.80;6.57;;;10.20;99.90;;;;;;5057108;28;20025;-68
2023/11/12 11:27:14;;;;;;;14.93;6.78;;;10.30;99.90;;;;;;5049540;28;20025;-69
2023/11/12 11:30:26;;;;;;;8.70;5.70;;;10.20;99.90;;;;;;5049188;28;20025;-69
2023/11/12 11:32:54;;;;;;;16.60;6.07;;;10.30;99.90;;;;;;5046803;28;20101;-69
2023/11/12 11:35:21;;;;;;;8.60;5.50;;;10.30;99.90;;;;;;5058543;28;20048;-69
2023/11/12 11:38:08;;;;;;;8.95;5.80;;;10.30;99.90;;;;;;5047638;28;20032;-69
2023/11/12 11:40:35;;;;;;;7.75;5.20;;;10.30;99.90;;;;;;5049350;28;20060;-69
2023/11/12 11:43:23;;;;;;;9.50;5.18;;;10.30;99.90;;;;;;5059932;28;20055;-69
2023/11/12 11:46:10;;;;;;;11.68;5.30;;;10.30;99.90;;;;;;5047598;28;20029;-69
2023/11/12 11:48:56;;;;;;;7.97;4.82;;;10.40;99.90;;;;;;5047945;28;20029;-69
2023/11/12 11:51:33;;;;;;;11.02;5.65;;;10.40;99.90;;;;;;5046016;28;20387;-69
2023/11/12 11:54:04;;;;;;;11.70;5.65;;;10.50;99.90;;;;;;5047130;28;20025;-69
2023/11/12 11:56:30;;;;;;;12.80;5.65;;;10.50;99.90;;;;;;5049734;28;20120;-69
2023/11/12 11:58:56;;;;;;;10.27;5.35;;;10.50;99.90;;;;;;5058382;28;20040;-69
2023/11/12 12:01:22;;;;;;;8.30;5.32;;;10.40;99.90;;;;;;5048011;28;20022;-69
2023/11/12 12:04:00;;;;;;;9.68;4.88;;;10.40;99.90;;;;;;5049199;28;20032;-69
2023/11/12 12:06:27;;;;;;;7.13;4.85;;;10.50;99.90;;;;;;5059261;28;20052;-69
2023/11/12 12:08:55;;;;;;;7.80;4.38;;;10.50;99.90;;;;;;5048804;28;20036;-69
2023/11/12 12:11:25;;;;;;;10.55;4.03;;;10.60;99.90;;;;;;5044751;28;20502;-69
2023/11/12 12:13:56;;;;;;;5.65;3.95;;;10.60;99.90;;;;;;5055394;28;20031;-69
2023/11/12 12:16:35;;;;;;;9.48;4.15;;;10.80;99.90;;;;;;5051800;28;20104;-69
2023/11/12 12:19:05;;;;;;;9.07;4.13;;;10.80;99.90;;;;;;5052610;28;20047;-69
2023/11/12 12:21:34;;;;;;;14.80;4.80;;;10.70;99.90;;;;;;5055385;28;20139;-69
2023/11/12 12:24:00;;;;;;;8.82;4.57;;;10.60;99.90;;;;;;5059257;28;20391;-73
2023/11/12 12:26:29;;;;;;;6.38;4.15;;;10.50;99.90;;;;;;5053745;28;20083;-69
2023/11/12 12:28:55;;;;;;;6.38;3.70;;;10.50;99.90;;;;;;5049446;28;20047;-69
2023/11/12 12:31:22;;;;;;;5.68;3.58;;;10.60;99.90;;;;;;5053043;28;20029;-69
2023/11/12 12:34:01;;;;;;;8.48;4.15;;;10.50;99.90;;;;;;5054698;28;20029;-69
2023/11/12 12:36:27;;;;;;;7.50;3.70;;;10.50;99.90;;;;;;5055566;28;20048;-69
2023/11/12 12:38:57;;;;;;;5.20;3.47;;;10.50;99.90;;;;;;5059189;28;20418;-69
2023/11/12 12:41:26;;;;;;;11.10;3.53;;;10.50;99.90;;;;;;5048938;28;20013;-61
2023/11/12 12:43:54;;;;;;;6.57;3.60;;;10.60;99.90;;;;;;5051016;28;20099;-68
2023/11/12 12:46:23;;;;;;;4.32;3.35;;;10.60;99.90;;;;;;5053680;28;20029;-68
2023/11/12 12:48:53;;;;;;;8.93;4.07;;;10.60;99.90;;;;;;5051149;28;20033;-68
2023/11/12 12:51:19;;;;;;;6.25;4.22;;;10.50;99.90;;;;;;5053381;28;20032;-69